createdAt,value
2022-09-28T00:01:15.713Z,154.43
2022-09-28T00:04:18.011Z,158.30
2022-09-28T00:07:19.821Z,142.75
2022-09-28T00:10:24.380Z,150.30
2022-09-28T00:13:26.352Z,151.93
2022-09-28T00:16:31.937Z,138.20
2022-09-28T00:19:35.047Z,164.35
2022-09-28T00:22:37.166Z,175.57
2022-09-28T00:25:39.000Z,280.23
2022-09-28T00:28:40.874Z,213.07
2022-09-28T00:31:42.937Z,168.80
2022-09-28T00:34:48.998Z,204.13
2022-09-28T00:37:50.980Z,150.55
2022-09-28T00:40:52.929Z,199.38
2022-09-28T00:44:36.021Z,319.42
2022-09-28T00:47:58.454Z,247.88
2022-09-28T00:51:05.984Z,215.32
2022-09-28T00:54:09.252Z,147.77
2022-09-28T01:00:13.801Z,141.98
2022-09-28T01:03:16.718Z,158.32
2022-09-28T01:06:24.607Z,148.90
2022-09-28T01:09:28.889Z,180.13
2022-09-28T01:12:30.744Z,156.00
2022-09-28T01:15:36.785Z,161.52
2022-09-28T01:18:54.386Z,170.32
2022-09-28T01:22:27.387Z,173.45
2022-09-28T01:25:51.303Z,160.25
2022-09-28T01:29:01.609Z,161.40
2022-09-28T01:32:27.856Z,155.32
2022-09-28T01:35:39.965Z,175.13
2022-09-28T01:38:55.915Z,150.93
2022-09-28T01:42:03.181Z,166.35
2022-09-28T01:45:16.445Z,137.07
2022-09-28T01:48:31.392Z,138.57
2022-09-28T01:51:54.959Z,122.88
2022-09-28T01:55:04.124Z,124.32
2022-09-28T01:58:27.415Z,117.32
2022-09-28T02:01:43.155Z,128.90
2022-09-28T02:05:09.246Z,130.90
2022-09-28T02:08:29.305Z,148.48
2022-09-28T02:11:33.386Z,148.93
2022-09-28T02:14:38.043Z,147.48
2022-09-28T02:17:40.058Z,155.48
2022-09-28T02:20:47.640Z,140.88
2022-09-28T02:24:06.988Z,122.97
2022-09-28T02:27:16.518Z,137.07
2022-09-28T02:30:18.988Z,102.53
2022-09-28T02:33:33.732Z,102.10
2022-09-28T02:36:35.881Z,97.18
2022-09-28T02:39:37.697Z,98.20
2022-09-28T02:42:54.411Z,104.25
2022-09-28T02:46:08.207Z,100.97
2022-09-28T02:49:22.455Z,104.65
2022-09-28T02:52:47.648Z,105.43
2022-09-28T02:56:07.648Z,98.53
2022-09-28T02:59:50.628Z,109.07
2022-09-28T03:03:22.187Z,112.63
2022-09-28T03:06:50.356Z,109.68
2022-09-28T03:10:28.083Z,96.43
2022-09-28T03:13:31.053Z,71.47
2022-09-28T03:16:33.068Z,82.13
2022-09-28T03:19:36.785Z,62.33
2022-09-28T03:22:38.914Z,85.00
2022-09-28T03:25:40.830Z,67.30
2022-09-28T03:28:43.231Z,70.97
2022-09-28T03:31:45.145Z,65.03
2022-09-28T03:34:47.082Z,59.65
2022-09-28T03:37:48.920Z,61.28
2022-09-28T03:40:58.588Z,62.83
2022-09-28T03:44:00.578Z,67.90
2022-09-28T03:47:02.451Z,70.53
2022-09-28T03:50:04.611Z,64.15
2022-09-28T03:53:06.462Z,66.00
2022-09-28T03:56:14.634Z,68.28
2022-09-28T03:59:16.651Z,63.28
2022-09-28T04:02:18.615Z,60.20
2022-09-28T04:05:20.602Z,62.60
2022-09-28T04:08:22.611Z,63.28
2022-09-28T04:11:24.557Z,66.32
2022-09-28T04:14:26.405Z,71.20
2022-09-28T04:17:28.297Z,68.38
2022-09-28T04:20:30.127Z,80.72
2022-09-28T04:23:32.466Z,88.55
2022-09-28T04:26:34.353Z,85.85
2022-09-28T04:29:36.241Z,82.90
2022-09-28T04:32:39.327Z,81.30
2022-09-28T04:35:41.334Z,85.68
2022-09-28T04:38:58.583Z,74.93
2022-09-28T04:42:01.901Z,80.40
2022-09-28T04:48:07.948Z,78.70
2022-09-28T04:51:10.128Z,69.47
2022-09-28T04:54:11.990Z,76.03
2022-09-28T04:57:13.846Z,74.40
2022-09-28T05:00:16.886Z,76.78
2022-09-28T05:03:19.090Z,88.93
2022-09-28T05:06:22.758Z,81.90
2022-09-28T05:09:24.642Z,85.43
2022-09-28T05:12:26.533Z,86.70
2022-09-28T05:15:28.390Z,80.18
2022-09-28T05:18:30.301Z,73.22
2022-09-28T05:21:32.235Z,70.45
2022-09-28T05:24:34.107Z,73.03
2022-09-28T05:27:35.927Z,65.28
2022-09-28T05:30:38.322Z,75.00
2022-09-28T05:33:40.222Z,73.80
2022-09-28T05:36:42.898Z,80.35
2022-09-28T05:39:44.711Z,90.90
2022-09-28T05:42:46.667Z,85.00
2022-09-28T05:45:51.644Z,78.28
2022-09-28T05:48:56.336Z,84.78
2022-09-28T05:51:58.177Z,84.60
2022-09-28T05:55:00.563Z,78.68
2022-09-28T05:58:04.703Z,69.63
2022-09-28T06:01:06.667Z,64.82
2022-09-28T06:04:09.044Z,69.80
2022-09-28T06:07:12.085Z,71.38
2022-09-28T06:10:14.011Z,53.55
2022-09-28T06:13:15.852Z,54.65
2022-09-28T06:16:18.780Z,44.30
2022-09-28T06:19:20.685Z,34.78
2022-09-28T06:22:22.498Z,37.13
2022-09-28T06:25:25.026Z,42.75
2022-09-28T06:28:27.010Z,32.57
2022-09-28T06:31:31.440Z,41.00
2022-09-28T06:34:34.934Z,35.58
2022-09-28T06:37:36.991Z,47.92
2022-09-28T06:40:39.435Z,42.35
2022-09-28T06:43:41.615Z,48.47
2022-09-28T06:46:43.442Z,40.70
2022-09-28T06:49:47.824Z,46.83
2022-09-28T06:52:54.327Z,44.67
2022-09-28T06:55:58.005Z,43.45
2022-09-28T06:58:59.872Z,40.30
2022-09-28T07:02:01.859Z,39.70
2022-09-28T07:05:04.067Z,42.90
2022-09-28T07:08:05.948Z,45.28
2022-09-28T07:11:08.343Z,43.45
2022-09-28T07:14:16.345Z,42.73
2022-09-28T07:17:24.948Z,34.35
2022-09-28T07:20:27.341Z,32.10
2022-09-28T07:23:30.709Z,32.92
2022-09-28T07:26:33.261Z,36.20
2022-09-28T07:29:35.129Z,30.63
2022-09-28T07:32:37.580Z,38.13
2022-09-28T07:35:41.808Z,28.50
2022-09-28T07:38:44.079Z,33.60
2022-09-28T07:41:45.907Z,38.72
2022-09-28T07:44:47.899Z,34.03
2022-09-28T07:47:50.859Z,29.55
2022-09-28T07:50:55.167Z,29.30
2022-09-28T07:53:57.031Z,24.90
2022-09-28T07:56:58.914Z,31.27
2022-09-28T08:00:02.224Z,25.92
2022-09-28T08:06:09.902Z,26.95
2022-09-28T08:09:11.833Z,25.73
2022-09-28T08:12:14.220Z,24.60
2022-09-28T08:15:16.133Z,20.23
2022-09-28T08:18:18.182Z,20.25
2022-09-28T08:21:41.455Z,20.23
2022-09-28T08:24:43.481Z,19.30
2022-09-28T08:27:45.328Z,16.35
2022-09-28T08:30:48.505Z,20.63
2022-09-28T08:36:59.149Z,14.80
2022-09-28T08:40:01.128Z,15.70
2022-09-28T08:43:14.594Z,21.55
2022-09-28T08:49:29.739Z,15.77
2022-09-28T08:52:38.000Z,13.80
2022-09-28T08:55:40.399Z,15.10
2022-09-28T08:58:45.951Z,14.87
2022-09-28T09:02:16.231Z,18.27
2022-09-28T09:05:21.040Z,13.18
2022-09-28T09:08:32.183Z,13.05
2022-09-28T09:11:51.923Z,13.45
2022-09-28T09:14:56.651Z,13.55
2022-09-28T09:18:27.524Z,12.70
2022-09-28T09:21:58.027Z,15.63
2022-09-28T09:25:25.928Z,15.30
2022-09-28T09:28:33.393Z,14.50
2022-09-28T09:32:05.630Z,13.73
2022-09-28T09:35:07.694Z,12.50
2022-09-28T09:38:45.987Z,10.90
2022-09-28T09:41:53.935Z,11.40
2022-09-28T09:45:07.749Z,10.73
2022-09-28T09:48:24.936Z,10.55
2022-09-28T09:51:57.232Z,12.10
2022-09-28T09:55:16.924Z,10.50
2022-09-28T09:58:26.026Z,12.80
2022-09-28T10:01:35.354Z,12.18
2022-09-28T10:04:43.419Z,11.38
2022-09-28T10:08:08.913Z,11.40
2022-09-28T10:11:25.604Z,11.57
2022-09-28T10:14:27.887Z,15.90
2022-09-28T10:17:29.799Z,12.27
2022-09-28T10:20:37.045Z,13.95
2022-09-28T10:23:41.020Z,13.30
2022-09-28T10:26:48.333Z,12.57
2022-09-28T10:29:55.335Z,13.60
2022-09-28T10:33:00.768Z,11.13
2022-09-28T10:36:07.354Z,12.52
2022-09-28T10:39:32.370Z,10.43
2022-09-28T10:42:36.249Z,10.05
2022-09-28T10:45:38.785Z,10.48
2022-09-28T10:48:51.682Z,11.60
2022-09-28T10:51:56.235Z,9.80
2022-09-28T10:54:58.527Z,10.95
2022-09-28T10:58:00.655Z,11.77
2022-09-28T11:01:09.378Z,9.07
2022-09-28T11:04:22.136Z,9.48
2022-09-28T11:07:30.746Z,11.30
2022-09-28T11:10:33.429Z,9.50
2022-09-28T11:13:47.921Z,9.13
2022-09-28T11:17:15.287Z,10.95
2022-09-28T11:20:28.156Z,10.32
2022-09-28T11:23:31.229Z,10.88
2022-09-28T11:26:51.260Z,14.68
2022-09-28T11:29:58.850Z,11.75
2022-09-28T11:33:10.121Z,10.95
2022-09-28T11:36:15.045Z,16.33
2022-09-28T11:39:33.175Z,11.80
2022-09-28T11:42:56.888Z,11.65
2022-09-28T11:46:21.167Z,9.82
2022-09-28T11:49:38.741Z,10.27
2022-09-28T11:52:56.693Z,9.77
2022-09-28T11:56:39.688Z,9.23
2022-09-28T12:00:05.178Z,10.50
2022-09-28T12:03:25.410Z,10.85
2022-09-28T12:06:38.826Z,9.63
2022-09-28T12:09:54.097Z,11.43
2022-09-28T12:13:10.214Z,11.60
2022-09-28T12:16:45.708Z,11.68
2022-09-28T12:20:01.655Z,12.25
2022-09-28T12:23:08.269Z,12.20
2022-09-28T12:26:16.161Z,12.77
2022-09-28T12:29:41.072Z,12.75
2022-09-28T12:32:58.596Z,12.90
2022-09-28T12:36:19.009Z,12.98
2022-09-28T12:39:56.397Z,12.10
2022-09-28T12:43:17.631Z,10.38
2022-09-28T12:46:40.943Z,10.40
2022-09-28T12:50:38.049Z,10.98
2022-09-28T12:57:40.362Z,10.63
2022-09-28T13:01:17.127Z,10.70
2022-09-28T13:04:41.432Z,11.18
2022-09-28T13:07:54.181Z,10.18
2022-09-28T13:11:32.019Z,10.43
2022-09-28T13:14:45.827Z,10.70
2022-09-28T13:17:56.881Z,11.30
2022-09-28T13:21:15.214Z,10.75
2022-09-28T13:24:32.619Z,10.75
2022-09-28T13:27:40.540Z,11.05
2022-09-28T13:30:45.270Z,10.82
2022-09-28T13:33:49.087Z,11.93
2022-09-28T13:37:10.018Z,10.55
2022-09-28T13:40:12.044Z,9.93
2022-09-28T13:43:28.783Z,9.48
2022-09-28T13:46:39.307Z,12.60
2022-09-28T13:49:44.659Z,9.57
2022-09-28T13:53:31.320Z,12.05
2022-09-28T13:56:50.964Z,9.75
2022-09-28T14:00:16.410Z,9.75
2022-09-28T14:03:27.769Z,10.93
2022-09-28T14:06:32.223Z,13.27
2022-09-28T14:09:59.017Z,13.85
2022-09-28T14:13:02.332Z,11.80
2022-09-28T14:16:18.154Z,12.68
2022-09-28T14:19:26.662Z,12.98
2022-09-28T14:22:49.437Z,12.95
2022-09-28T14:26:15.470Z,17.63
2022-09-28T14:29:28.525Z,12.15
2022-09-28T14:32:37.533Z,12.63
2022-09-28T14:35:45.466Z,11.43
2022-09-28T14:39:08.699Z,11.40
2022-09-28T14:42:29.011Z,11.93
2022-09-28T14:45:36.322Z,9.75
2022-09-28T14:48:50.565Z,12.00
2022-09-28T14:51:57.859Z,11.77
2022-09-28T14:54:59.733Z,14.80
2022-09-28T14:58:04.548Z,17.80
2022-09-28T15:01:17.206Z,14.73
2022-09-28T15:04:20.524Z,17.27
2022-09-28T15:07:34.335Z,14.77
2022-09-28T15:10:42.043Z,18.55
2022-09-28T15:13:44.317Z,16.35
2022-09-28T15:16:46.458Z,16.45
2022-09-28T15:19:53.827Z,14.30
2022-09-28T15:23:00.869Z,14.75
2022-09-28T15:26:07.193Z,15.32
2022-09-28T15:29:20.800Z,14.38
2022-09-28T15:32:31.778Z,14.23
2022-09-28T15:35:34.633Z,13.63
2022-09-28T15:38:36.858Z,13.70
2022-09-28T15:41:39.075Z,15.38
2022-09-28T15:44:45.711Z,16.88
2022-09-28T15:47:47.669Z,23.20
2022-09-28T15:51:06.183Z,18.63
2022-09-28T15:54:20.405Z,16.33
2022-09-28T15:57:38.083Z,15.82
2022-09-28T16:00:40.461Z,14.07
2022-09-28T16:03:42.406Z,14.17
2022-09-28T16:06:44.692Z,13.27
2022-09-28T16:10:11.540Z,14.50
2022-09-28T16:13:20.082Z,14.15
2022-09-28T16:16:30.722Z,14.95
2022-09-28T16:19:37.820Z,14.60
2022-09-28T16:22:43.328Z,15.25
2022-09-28T16:26:02.879Z,17.33
2022-09-28T16:29:29.518Z,14.48
2022-09-28T16:32:54.468Z,14.95
2022-09-28T16:36:01.851Z,13.48
2022-09-28T16:39:04.013Z,14.30
2022-09-28T16:42:08.107Z,14.40
2022-09-28T16:45:20.624Z,13.38
2022-09-28T16:48:27.336Z,14.27
2022-09-28T16:51:29.582Z,14.85
2022-09-28T16:54:53.979Z,15.85
2022-09-28T16:57:56.384Z,15.93
2022-09-28T17:00:59.129Z,16.65
2022-09-28T17:04:01.434Z,15.73
2022-09-28T17:07:03.334Z,18.25
2022-09-28T17:10:16.838Z,17.08
2022-09-28T17:16:58.196Z,19.00
2022-09-28T17:19:52.287Z,15.73
2022-09-28T17:22:54.269Z,15.75
2022-09-28T17:25:56.845Z,18.00
2022-09-28T17:28:59.457Z,19.17
2022-09-28T17:32:01.600Z,17.55
2022-09-28T17:35:23.582Z,16.60
2022-09-28T17:38:27.071Z,24.35
2022-09-28T17:41:29.091Z,24.85
2022-09-28T17:44:31.036Z,22.13
2022-09-28T17:47:34.432Z,28.77
2022-09-28T17:50:36.561Z,23.88
2022-09-28T17:53:38.604Z,21.88
2022-09-28T17:56:40.601Z,25.48
2022-09-28T17:59:42.508Z,22.20
2022-09-28T18:02:45.323Z,23.20
2022-09-28T18:05:51.016Z,25.90
2022-09-28T18:08:53.079Z,21.50
2022-09-28T18:12:05.280Z,22.60
2022-09-28T18:15:07.674Z,25.75
2022-09-28T18:18:10.799Z,21.83
2022-09-28T18:21:12.995Z,22.45
2022-09-28T18:24:14.926Z,22.48
2022-09-28T18:27:16.850Z,22.38
2022-09-28T18:30:18.818Z,22.30
2022-09-28T18:33:20.945Z,23.15
2022-09-28T18:36:37.443Z,22.98
2022-09-28T18:39:39.532Z,31.15
2022-09-28T18:42:44.698Z,25.35
2022-09-28T18:45:47.288Z,25.05
2022-09-28T18:48:49.751Z,23.25
2022-09-28T18:51:52.271Z,25.70
2022-09-28T18:54:54.219Z,27.42
2022-09-28T18:57:56.259Z,28.23
2022-09-28T19:01:25.218Z,29.92
2022-09-28T19:04:20.635Z,29.02
2022-09-28T19:07:23.272Z,32.70
2022-09-28T19:10:25.450Z,33.33
2022-09-28T19:13:28.523Z,35.22
2022-09-28T19:16:33.713Z,33.47
2022-09-28T19:19:35.909Z,31.25
2022-09-28T19:22:37.825Z,31.48
2022-09-28T19:25:41.032Z,29.83
2022-09-28T19:28:43.143Z,29.02
2022-09-28T19:31:45.309Z,30.50
2022-09-28T19:34:47.176Z,32.60
2022-09-28T19:37:50.128Z,31.20
2022-09-28T19:40:52.112Z,29.65
2022-09-28T19:43:55.415Z,29.23
2022-09-28T19:50:10.267Z,29.63
2022-09-28T19:53:13.233Z,32.65
2022-09-28T19:56:16.661Z,30.23
2022-09-28T19:59:19.227Z,29.02
2022-09-28T20:02:22.045Z,27.70
2022-09-28T20:05:24.006Z,28.63
2022-09-28T20:08:26.731Z,31.00
2022-09-28T20:11:31.852Z,29.73
2022-09-28T20:14:37.959Z,28.95
2022-09-28T20:17:44.460Z,29.80
2022-09-28T20:20:46.314Z,31.83
2022-09-28T20:23:49.677Z,29.65
2022-09-28T20:29:53.726Z,28.98
2022-09-28T20:32:55.578Z,29.38
2022-09-28T20:35:57.889Z,28.70
2022-09-28T20:39:03.655Z,28.38
2022-09-28T20:42:05.674Z,28.38
2022-09-28T20:45:07.709Z,28.17
2022-09-28T20:48:09.589Z,27.20
2022-09-28T20:51:14.020Z,28.63
2022-09-28T20:54:15.926Z,27.60
2022-09-28T20:57:17.840Z,28.00
2022-09-28T21:00:19.876Z,28.38
2022-09-28T21:03:21.774Z,29.20
2022-09-28T21:06:27.051Z,31.15
2022-09-28T21:09:31.200Z,28.50
2022-09-28T21:12:34.287Z,28.92
2022-09-28T21:15:36.312Z,31.45
2022-09-28T21:18:41.212Z,27.30
2022-09-28T21:21:43.265Z,27.50
2022-09-28T21:24:45.439Z,28.50
2022-09-28T21:27:47.929Z,26.70
2022-09-28T21:30:52.007Z,28.43
2022-09-28T21:33:53.922Z,28.83
2022-09-28T21:36:55.858Z,29.27
2022-09-28T21:39:58.176Z,28.52
2022-09-28T21:43:03.996Z,27.73
2022-09-28T21:46:07.843Z,28.17
2022-09-28T21:49:11.032Z,28.73
2022-09-28T21:52:12.853Z,29.00
2022-09-28T21:55:14.811Z,26.92
2022-09-28T21:58:23.747Z,27.75
2022-09-28T22:01:26.301Z,28.92
2022-09-28T22:04:29.983Z,29.27
2022-09-28T22:07:32.137Z,29.35
2022-09-28T22:10:33.980Z,28.70
2022-09-28T22:13:51.840Z,29.30
2022-09-28T22:16:54.747Z,30.52
2022-09-28T22:19:57.518Z,31.48
2022-09-28T22:23:00.501Z,47.63
2022-09-28T22:29:16.997Z,31.17
2022-09-28T22:32:20.260Z,32.55
2022-09-28T22:38:25.012Z,34.70
2022-09-28T22:41:27.126Z,37.15
2022-09-28T22:44:30.109Z,38.95
2022-09-28T22:47:31.922Z,42.65
2022-09-28T22:50:34.520Z,41.03
2022-09-28T22:53:36.396Z,41.75
2022-09-28T22:56:38.281Z,37.17
2022-09-28T22:59:40.137Z,41.60
2022-09-28T23:02:42.027Z,48.17
2022-09-28T23:05:55.041Z,48.60
2022-09-28T23:08:57.354Z,60.38
2022-09-28T23:11:59.300Z,62.38
2022-09-28T23:15:01.147Z,65.00
2022-09-28T23:18:02.955Z,62.58
2022-09-28T23:21:07.222Z,67.97
2022-09-28T23:24:10.928Z,61.10
2022-09-28T23:27:12.865Z,58.47
2022-09-28T23:30:16.332Z,55.85
2022-09-28T23:33:20.425Z,50.60
2022-09-28T23:36:22.297Z,45.75
2022-09-28T23:39:24.157Z,45.15
2022-09-28T23:42:25.967Z,53.13
2022-09-28T23:45:27.895Z,51.85
2022-09-28T23:48:29.921Z,49.42
2022-09-28T23:51:31.950Z,49.30
2022-09-28T23:54:33.866Z,48.80
2022-09-28T23:57:35.729Z,49.72
